Time;durP1;ratioP1;P1;durP2;ratioP2;P2;SDS_P1;SDS_P2;PMS_P1;PMS_P2;Temp;Humidity;BMP_temperature;BMP_pressure;BME280_temperature;BME280_humidity;BME280_pressure;Samples;Min_cycle;Max_cycle;Signal;HPM_P1;HPM_P2
2022/05/03 00:00:11;;;;;;;3.65;3.28;;;22.40;42.40;;;;;;5012611;28;20471;-65
2022/05/03 00:02:46;;;;;;;3.75;3.40;;;22.30;42.30;;;;;;5012982;28;20424;-64
2022/05/03 00:05:30;;;;;;;3.80;3.33;;;22.30;42.30;;;;;;5012952;28;20400;-61
2022/05/03 00:08:11;;;;;;;4.18;3.78;;;22.30;42.40;;;;;;5012386;28;20397;-65
2022/05/03 00:11:00;;;;;;;3.97;3.58;;;22.30;42.10;;;;;;5012054;28;20478;-64
2022/05/03 00:13:36;;;;;;;4.53;3.63;;;22.30;42.10;;;;;;5012172;28;20400;-64
2022/05/03 00:16:02;;;;;;;3.92;3.45;;;22.30;42.10;;;;;;5012413;28;20393;-65
2022/05/03 00:18:28;;;;;;;4.30;3.57;;;22.30;42.10;;;;;;5012569;28;20438;-65
2022/05/03 00:20:54;;;;;;;4.55;3.45;;;22.30;42.20;;;;;;5012744;28;20393;-65
2022/05/03 00:23:22;;;;;;;4.00;3.60;;;22.30;42.70;;;;;;5012624;28;20412;-64
2022/05/03 00:25:50;;;;;;;3.50;3.20;;;22.30;42.20;;;;;;5012160;28;20766;-61
2022/05/03 00:28:16;;;;;;;4.63;3.40;;;22.20;42.10;;;;;;5012609;28;20877;-63
2022/05/03 00:30:42;;;;;;;4.00;3.30;;;22.20;42.10;;;;;;5012549;28;20476;-61
2022/05/03 00:33:09;;;;;;;3.87;3.50;;;22.20;42.20;;;;;;5012589;28;20397;-63
2022/05/03 00:35:34;;;;;;;4.07;3.67;;;22.20;42.20;;;;;;5012453;28;20480;-64
2022/05/03 00:38:00;;;;;;;4.03;3.50;;;22.20;42.10;;;;;;5011916;28;20475;-63
2022/05/03 00:40:28;;;;;;;3.60;3.30;;;22.20;42.20;;;;;;5013075;28;20385;-63
2022/05/03 00:43:23;;;;;;;3.83;3.42;;;22.20;42.20;;;;;;5012249;28;20472;-63
2022/05/03 00:45:56;;;;;;;4.00;3.60;;;22.20;42.20;;;;;;5011805;28;20873;-62
2022/05/03 00:48:50;;;;;;;3.80;3.50;;;22.20;42.00;;;;;;5012265;28;20825;-64
2022/05/03 00:51:19;;;;;;;3.92;3.63;;;22.20;42.20;;;;;;4997071;28;20738;-64
2022/05/03 00:53:51;;;;;;;4.70;3.60;;;22.20;42.20;;;;;;5011817;28;20896;-63
2022/05/03 00:56:43;;;;;;;4.20;3.78;;;22.20;42.10;;;;;;5010651;28;20442;-64
2022/05/03 00:59:37;;;;;;;4.75;3.38;;;22.20;42.10;;;;;;5010820;28;20851;-61
2022/05/03 01:02:05;;;;;;;3.80;3.40;;;22.10;42.00;;;;;;5011803;28;20435;-61
2022/05/03 01:04:57;;;;;;;3.88;3.45;;;22.10;42.00;;;;;;5012307;28;20401;-64
2022/05/03 01:07:34;;;;;;;3.75;3.42;;;22.10;42.00;;;;;;5011450;28;20389;-63
2022/05/03 01:10:16;;;;;;;4.47;3.50;;;22.10;41.90;;;;;;5011477;28;20424;-64
2022/05/03 01:13:01;;;;;;;3.80;3.50;;;22.10;42.00;;;;;;5011876;28;20408;-65
2022/05/03 01:15:37;;;;;;;4.00;3.60;;;22.10;42.00;;;;;;5012136;28;20845;-64
2022/05/03 01:18:20;;;;;;;4.25;3.65;;;22.10;42.00;;;;;;5011461;28;20429;-65
2022/05/03 01:21:11;;;;;;;4.30;3.90;;;22.10;42.00;;;;;;5011748;28;20397;-62
2022/05/03 01:23:48;;;;;;;4.00;3.60;;;22.10;42.00;;;;;;5011476;28;20432;-61
2022/05/03 01:26:52;;;;;;;3.90;3.50;;;22.10;42.00;;;;;;5011506;28;20484;-64
2022/05/03 01:29:22;;;;;;;3.80;3.40;;;22.00;42.00;;;;;;5011698;28;20384;-64
2022/05/03 01:31:53;;;;;;;3.97;3.60;;;22.00;41.90;;;;;;5011540;28;20409;-60
2022/05/03 01:34:23;;;;;;;4.00;3.60;;;22.00;42.00;;;;;;5012540;28;20475;-61
2022/05/03 01:37:01;;;;;;;4.07;3.70;;;22.00;41.80;;;;;;5011575;28;20393;-62
2022/05/03 01:39:26;;;;;;;4.03;3.63;;;22.00;41.90;;;;;;5011709;28;20421;-64
2022/05/03 01:42:00;;;;;;;3.92;3.63;;;22.00;41.80;;;;;;5010984;28;20551;-62
2022/05/03 01:44:37;;;;;;;3.70;3.40;;;22.00;41.70;;;;;;5011534;28;20420;-60
2022/05/03 01:47:47;;;;;;;3.63;3.33;;;22.00;41.80;;;;;;5010303;28;20747;-64
2022/05/03 01:50:30;;;;;;;4.10;3.70;;;22.00;41.80;;;;;;4988296;28;20408;-61
2022/05/03 01:53:14;;;;;;;4.15;3.70;;;22.00;41.90;;;;;;5010476;28;20436;-61
2022/05/03 01:56:15;;;;;;;4.00;3.60;;;22.00;41.80;;;;;;5011423;28;20380;-61
2022/05/03 01:59:04;;;;;;;3.97;3.58;;;21.90;41.80;;;;;;5010101;28;20397;-64
2022/05/03 02:01:39;;;;;;;3.92;3.50;;;21.90;41.80;;;;;;5009920;28;20409;-64
2022/05/03 02:04:20;;;;;;;4.25;3.85;;;21.90;41.80;;;;;;5010775;28;20384;-64
2022/05/03 02:07:06;;;;;;;4.05;3.65;;;21.90;41.70;;;;;;5011010;28;20801;-63
2022/05/03 02:10:00;;;;;;;4.25;3.88;;;21.90;41.80;;;;;;5011256;28;20381;-65
2022/05/03 02:12:27;;;;;;;4.25;3.85;;;21.90;41.80;;;;;;5011110;28;20904;-64
2022/05/03 02:14:56;;;;;;;3.70;3.40;;;21.90;41.70;;;;;;5011277;28;20401;-63
2022/05/03 02:17:49;;;;;;;4.47;3.90;;;21.90;41.80;;;;;;5011238;28;20377;-63
2022/05/03 02:20:28;;;;;;;4.10;3.70;;;21.90;41.80;;;;;;5011060;28;20475;-65
2022/05/03 02:23:18;;;;;;;4.03;3.72;;;21.90;41.90;;;;;;5010457;28;20428;-62
2022/05/03 02:25:44;;;;;;;4.28;3.88;;;21.90;41.80;;;;;;5011117;28;20915;-64
2022/05/03 02:28:42;;;;;;;4.00;3.60;;;21.90;41.80;;;;;;5010734;28;20412;-64
2022/05/03 02:31:12;;;;;;;4.00;3.60;;;21.90;41.80;;;;;;5011264;28;20439;-65
2022/05/03 02:34:07;;;;;;;4.22;3.80;;;21.90;41.80;;;;;;5011083;28;20907;-64
2022/05/03 02:36:41;;;;;;;3.95;3.55;;;21.90;41.80;;;;;;4994969;28;20772;-64
2022/05/03 02:39:08;;;;;;;4.00;3.60;;;21.80;41.80;;;;;;5014553;28;20399;-60
2022/05/03 02:41:41;;;;;;;3.70;3.40;;;21.90;41.80;;;;;;5016578;28;20385;-65
2022/05/03 02:44:07;;;;;;;4.03;3.67;;;21.80;41.70;;;;;;5016227;28;20405;-65
2022/05/03 02:46:39;;;;;;;4.28;3.88;;;21.80;41.80;;;;;;5015033;28;20916;-65
2022/05/03 02:49:13;;;;;;;4.10;3.70;;;21.80;41.80;;;;;;5021081;28;20401;-65
2022/05/03 02:52:15;;;;;;;4.10;3.70;;;21.80;41.70;;;;;;5014285;28;20435;-64
2022/05/03 02:55:14;;;;;;;3.87;3.50;;;21.80;41.80;;;;;;5014835;28;20396;-65
2022/05/03 02:57:48;;;;;;;4.05;3.72;;;21.80;41.80;;;;;;5014247;28;20401;-60
2022/05/03 03:03:18;;;;;;;3.97;3.58;;;21.80;41.90;;;;;;5014109;28;20800;-65
2022/05/03 03:05:56;;;;;;;3.90;3.50;;;21.80;41.80;;;;;;5014116;28;20399;-61
2022/05/03 03:08:23;;;;;;;4.53;3.60;;;21.80;42.30;;;;;;5014090;28;20395;-65
2022/05/03 03:11:09;;;;;;;6.10;4.38;;;21.80;43.30;;;;;;5013989;28;20463;-61
2022/05/03 03:14:13;;;;;;;10.85;5.10;;;21.80;43.70;;;;;;5014160;28;20467;-60
2022/05/03 03:16:45;;;;;;;12.77;4.88;;;21.80;45.70;;;;;;4990959;28;20404;-60
2022/05/03 03:19:49;;;;;;;9.32;4.93;;;21.90;45.90;;;;;;5014353;28;20753;-64
2022/05/03 03:22:15;;;;;;;10.23;4.70;;;21.90;45.80;;;;;;4961446;28;20437;-65
2022/05/03 03:24:42;;;;;;;7.13;4.32;;;21.90;45.70;;;;;;5014532;28;20389;-64
2022/05/03 03:27:10;;;;;;;9.30;4.38;;;22.00;45.60;;;;;;5014307;28;20384;-64
2022/05/03 03:29:40;;;;;;;7.60;4.10;;;22.00;45.30;;;;;;5013764;28;20381;-64
2022/05/03 03:32:07;;;;;;;6.32;4.15;;;22.00;45.80;;;;;;5013299;28;20467;-64
2022/05/03 03:34:34;;;;;;;8.52;4.30;;;22.00;44.60;;;;;;5013823;28;20439;-62
2022/05/03 03:37:01;;;;;;;5.22;4.10;;;22.00;45.90;;;;;;5013878;28;20535;-64
2022/05/03 03:39:36;;;;;;;6.05;4.05;;;22.00;45.40;;;;;;5013608;28;20380;-64
2022/05/03 03:42:06;;;;;;;7.20;4.03;;;22.00;45.40;;;;;;5013091;28;20900;-62
2022/05/03 03:44:32;;;;;;;5.40;4.00;;;22.00;45.70;;;;;;5013220;28;20543;-63
2022/05/03 03:47:00;;;;;;;5.85;4.00;;;22.00;45.50;;;;;;5012793;28;20389;-64
2022/05/03 03:49:29;;;;;;;4.18;3.70;;;22.00;45.20;;;;;;5012750;28;20400;-64
2022/05/03 03:51:56;;;;;;;6.07;3.97;;;22.00;45.40;;;;;;5013259;28;20849;-62
2022/05/03 03:54:24;;;;;;;7.47;3.90;;;22.00;45.30;;;;;;5012920;28;20398;-62
2022/05/03 03:56:53;;;;;;;6.43;3.70;;;21.90;44.20;;;;;;5013226;28;20389;-63
2022/05/03 03:59:19;;;;;;;5.03;3.70;;;21.90;44.20;;;;;;5013203;28;20483;-63
2022/05/03 04:01:45;;;;;;;4.38;3.97;;;21.90;44.00;;;;;;5013272;28;20464;-64
2022/05/03 04:04:11;;;;;;;5.18;3.85;;;21.80;44.10;;;;;;5012641;28;20389;-62
2022/05/03 04:06:38;;;;;;;4.68;3.90;;;21.80;44.20;;;;;;5013080;28;20391;-64
2022/05/03 04:09:04;;;;;;;5.93;3.57;;;21.80;43.80;;;;;;5013131;28;20449;-61
2022/05/03 04:11:45;;;;;;;6.32;3.60;;;21.80;43.70;;;;;;5012971;28;20404;-60
2022/05/03 04:14:12;;;;;;;5.05;3.70;;;21.80;43.80;;;;;;5012563;28;20459;-63
2022/05/03 04:16:38;;;;;;;6.18;3.63;;;21.80;43.60;;;;;;5012684;28;20511;-65
2022/05/03 04:19:04;;;;;;;5.20;3.83;;;21.80;43.90;;;;;;5012869;28;20492;-64
2022/05/03 04:21:29;;;;;;;7.75;4.05;;;21.80;44.00;;;;;;5012774;28;20944;-64
2022/05/03 04:23:55;;;;;;;4.70;3.60;;;21.80;43.70;;;;;;5012411;28;20424;-62
2022/05/03 04:26:21;;;;;;;4.87;3.53;;;21.80;43.40;;;;;;5012353;28;20397;-63
2022/05/03 04:28:46;;;;;;;5.05;3.67;;;21.80;43.80;;;;;;5012551;28;20435;-61
2022/05/03 04:31:12;;;;;;;5.23;3.83;;;21.80;43.70;;;;;;5019706;28;20419;-65
2022/05/03 04:33:38;;;;;;;4.50;3.55;;;21.80;43.80;;;;;;5031594;28;20401;-64
2022/05/03 04:36:04;;;;;;;4.70;3.87;;;21.80;44.10;;;;;;5031675;28;20387;-64
2022/05/03 04:38:30;;;;;;;4.57;3.57;;;21.80;43.90;;;;;;5032114;28;20555;-63
2022/05/03 04:41:02;;;;;;;3.97;3.20;;;21.80;43.90;;;;;;5032102;28;20478;-64
2022/05/03 04:43:28;;;;;;;7.53;3.88;;;21.80;44.00;;;;;;5022497;28;20488;-62
2022/05/03 04:45:54;;;;;;;8.07;3.97;;;21.80;43.70;;;;;;4999841;28;20383;-65
2022/05/03 04:48:20;;;;;;;12.55;4.10;;;21.80;43.90;;;;;;5003290;28;20400;-65
2022/05/03 04:50:47;;;;;;;11.13;4.03;;;21.80;43.90;;;;;;4990778;28;20402;-62
2022/05/03 04:53:14;;;;;;;9.77;4.15;;;21.80;44.20;;;;;;4992507;28;20409;-64
2022/05/03 04:55:40;;;;;;;13.25;4.30;;;21.80;44.00;;;;;;5002971;28;20385;-64
2022/05/03 04:58:06;;;;;;;11.10;4.00;;;21.80;44.90;;;;;;5011747;28;20399;-64
2022/05/03 05:00:32;;;;;;;11.30;4.30;;;21.90;45.10;;;;;;5026781;28;20385;-63
2022/05/03 05:02:58;;;;;;;10.10;3.92;;;21.80;43.90;;;;;;5011627;28;20417;-62
2022/05/03 05:05:24;;;;;;;9.18;4.15;;;21.80;44.60;;;;;;5011942;28;20435;-63
2022/05/03 05:07:50;;;;;;;10.60;7.40;;;21.80;44.80;;;;;;5011770;28;20405;-63
2022/05/03 05:10:28;;;;;;;12.57;7.38;;;21.90;45.80;;;;;;5010792;28;20422;-63
2022/05/03 05:12:55;;;;;;;10.50;5.23;;;21.80;46.40;;;;;;5022255;28;21055;-64
2022/05/03 05:15:23;;;;;;;7.82;4.60;;;21.90;46.60;;;;;;5011745;28;20384;-64
2022/05/03 05:17:53;;;;;;;8.18;4.70;;;21.90;46.10;;;;;;5011911;28;20773;-64
2022/05/03 05:20:19;;;;;;;9.55;4.93;;;21.90;45.70;;;;;;5011279;28;20404;-64
2022/05/03 05:22:46;;;;;;;6.70;4.80;;;21.90;45.60;;;;;;5011666;28;21014;-64
2022/05/03 05:25:12;;;;;;;8.48;4.40;;;21.90;45.50;;;;;;5011776;28;20392;-65
2022/05/03 05:27:38;;;;;;;5.90;4.30;;;21.90;45.60;;;;;;5011455;28;20404;-65
2022/05/03 05:30:06;;;;;;;6.77;4.30;;;21.90;45.10;;;;;;5011346;28;20385;-62
2022/05/03 05:32:35;;;;;;;7.75;4.18;;;21.90;45.00;;;;;;5011739;28;20389;-64
2022/05/03 05:35:01;;;;;;;7.03;4.20;;;21.90;45.00;;;;;;5011442;28;20889;-65
2022/05/03 05:37:26;;;;;;;8.00;4.18;;;21.90;45.00;;;;;;5011498;28;20853;-64
2022/05/03 05:39:52;;;;;;;6.13;3.83;;;21.90;45.00;;;;;;5011654;28;20389;-64
2022/05/03 05:42:18;;;;;;;5.80;3.97;;;21.90;45.20;;;;;;5011069;28;20408;-64
2022/05/03 05:44:44;;;;;;;5.43;3.70;;;21.90;44.60;;;;;;5011238;28;20393;-63
2022/05/03 05:47:09;;;;;;;6.82;4.00;;;21.90;44.60;;;;;;5010643;28;20385;-63
2022/05/03 05:49:35;;;;;;;7.90;3.90;;;21.90;45.00;;;;;;5010780;28;20403;-63
2022/05/03 05:54:46;;;;;;;6.50;4.40;;;21.90;45.00;;;;;;5011375;28;20396;-63
2022/05/03 05:57:12;;;;;;;6.72;4.15;;;21.90;45.60;;;;;;5006650;28;20810;-61
2022/05/03 05:59:37;;;;;;;6.95;3.95;;;22.00;45.70;;;;;;5008192;28;20424;-64
2022/05/03 06:02:03;;;;;;;6.43;3.90;;;22.00;45.30;;;;;;5010052;28;20424;-64
2022/05/03 06:04:29;;;;;;;4.53;3.80;;;22.00;45.50;;;;;;5010036;28;20389;-64
2022/05/03 06:06:57;;;;;;;5.80;3.90;;;22.00;45.40;;;;;;5010663;28;20484;-65
2022/05/03 06:09:23;;;;;;;7.65;4.05;;;22.00;45.40;;;;;;5010966;28;20396;-64
2022/05/03 06:11:49;;;;;;;5.50;3.87;;;22.00;45.20;;;;;;5012739;28;20409;-64
2022/05/03 06:14:15;;;;;;;10.35;4.00;;;22.00;45.10;;;;;;5014414;28;20389;-65
2022/05/03 06:16:51;;;;;;;12.68;4.18;;;22.00;45.20;;;;;;5014888;28;20392;-64
2022/05/03 06:19:17;;;;;;;7.50;4.10;;;22.10;45.30;;;;;;5014566;28;21174;-63
2022/05/03 06:21:43;;;;;;;8.52;4.07;;;22.10;45.10;;;;;;5013929;28;20403;-64
2022/05/03 06:24:10;;;;;;;7.30;3.80;;;22.10;45.10;;;;;;5014018;28;20809;-63
2022/05/03 06:26:35;;;;;;;7.78;3.83;;;22.10;44.80;;;;;;5014708;28;20388;-64
2022/05/03 06:29:02;;;;;;;7.87;3.80;;;22.20;44.90;;;;;;5014627;28;20800;-62
2022/05/03 06:31:29;;;;;;;7.07;3.97;;;22.20;44.70;;;;;;5014216;28;20389;-63
2022/05/03 06:33:55;;;;;;;6.43;4.00;;;22.20;44.70;;;;;;5014325;28;20455;-62
2022/05/03 06:36:22;;;;;;;5.35;4.00;;;22.20;44.60;;;;;;5013669;28;20392;-62
2022/05/03 06:38:48;;;;;;;6.43;4.30;;;22.20;44.50;;;;;;5013756;28;20488;-61
2022/05/03 06:41:13;;;;;;;4.40;3.60;;;22.30;44.30;;;;;;5013966;28;20489;-61
2022/05/03 06:43:39;;;;;;;7.47;4.03;;;22.30;44.40;;;;;;5014005;28;20512;-61
2022/05/03 06:46:05;;;;;;;6.68;3.78;;;22.30;44.30;;;;;;5014050;28;20788;-64
2022/05/03 06:48:31;;;;;;;4.00;3.40;;;22.30;44.20;;;;;;5009405;28;20388;-61
2022/05/03 06:50:56;;;;;;;5.20;3.80;;;22.30;44.30;;;;;;5014058;28;20389;-63
2022/05/03 06:53:22;;;;;;;4.67;3.50;;;22.30;44.10;;;;;;5013832;28;20393;-61
2022/05/03 06:55:48;;;;;;;5.10;3.78;;;22.30;44.20;;;;;;5014058;28;20392;-62
2022/05/03 06:58:13;;;;;;;6.57;3.60;;;22.40;44.30;;;;;;5013364;28;20393;-61
2022/05/03 07:00:39;;;;;;;4.78;3.65;;;22.30;44.20;;;;;;5013740;28;20463;-61
2022/05/03 07:03:05;;;;;;;5.37;3.57;;;22.30;44.20;;;;;;5013847;28;20766;-62
2022/05/03 07:05:31;;;;;;;4.38;3.58;;;22.30;44.00;;;;;;5013847;28;20389;-60
2022/05/03 07:07:57;;;;;;;5.53;3.95;;;22.40;44.20;;;;;;5014071;28;20404;-61
2022/05/03 07:10:23;;;;;;;5.40;3.70;;;22.30;44.20;;;;;;5013308;28;20388;-60
2022/05/03 07:12:49;;;;;;;4.80;3.73;;;22.40;44.00;;;;;;5013844;28;20475;-61
2022/05/03 07:15:14;;;;;;;5.10;3.75;;;22.30;44.70;;;;;;5013555;28;20479;-63
2022/05/03 07:23:11;;;;;;;5.38;4.00;;;22.30;43.90;;;;;;5013092;28;20486;-62
2022/05/03 07:25:38;;;;;;;5.87;4.17;;;22.30;43.80;;;;;;5013567;28;20859;-63
2022/05/03 07:28:05;;;;;;;5.87;4.07;;;22.40;43.70;;;;;;5013327;28;20400;-61
2022/05/03 07:30:30;;;;;;;7.25;4.00;;;22.40;43.60;;;;;;5013220;28;20420;-63
2022/05/03 07:32:56;;;;;;;7.10;4.07;;;22.30;43.40;;;;;;5013428;28;20495;-61
2022/05/03 07:35:23;;;;;;;5.82;4.00;;;22.30;43.30;;;;;;5013341;28;20412;-62
2022/05/03 07:37:50;;;;;;;5.20;4.00;;;22.30;43.20;;;;;;5012912;28;20887;-61
2022/05/03 07:40:16;;;;;;;8.02;4.35;;;22.30;43.00;;;;;;5017261;28;20456;-61
2022/05/03 07:42:42;;;;;;;7.85;4.43;;;22.30;42.90;;;;;;5030731;28;20835;-60
2022/05/03 07:45:08;;;;;;;7.50;4.25;;;22.40;42.90;;;;;;5025833;28;20449;-61
2022/05/03 07:47:35;;;;;;;6.90;3.97;;;22.30;42.80;;;;;;5032878;28;20387;-61
2022/05/03 07:50:01;;;;;;;7.85;4.40;;;22.40;42.90;;;;;;5032837;28;20387;-61
2022/05/03 07:52:27;;;;;;;5.88;4.00;;;22.40;42.90;;;;;;5030215;28;20469;-60
2022/05/03 07:54:54;;;;;;;5.63;4.20;;;22.40;42.90;;;;;;5024529;28;20469;-62
2022/05/03 07:57:19;;;;;;;6.07;4.50;;;22.40;42.90;;;;;;5005706;28;20450;-62
2022/05/03 07:59:45;;;;;;;5.45;4.40;;;22.40;42.90;;;;;;5028219;28;20485;-61
2022/05/03 08:02:11;;;;;;;5.17;4.30;;;22.40;42.90;;;;;;5032079;28;20418;-61
2022/05/03 08:04:37;;;;;;;7.05;4.07;;;22.40;42.90;;;;;;5031421;28;20400;-62
2022/05/03 08:07:03;;;;;;;6.63;4.32;;;22.40;43.20;;;;;;5012900;28;20416;-63
2022/05/03 08:09:29;;;;;;;5.60;4.47;;;22.40;43.30;;;;;;5013508;28;20430;-63
2022/05/03 08:11:54;;;;;;;5.40;4.38;;;22.40;43.30;;;;;;5031830;28;20427;-63
2022/05/03 08:14:21;;;;;;;5.90;4.93;;;22.40;43.30;;;;;;5031889;28;20434;-63
2022/05/03 08:16:47;;;;;;;5.50;4.85;;;22.40;43.30;;;;;;5017207;28;20395;-61
2022/05/03 08:19:13;;;;;;;6.10;5.05;;;22.40;43.30;;;;;;5011073;28;20391;-63
2022/05/03 08:21:39;;;;;;;6.47;4.90;;;22.40;43.20;;;;;;5032286;28;20387;-62
2022/05/03 08:24:06;;;;;;;6.20;4.85;;;22.40;42.90;;;;;;5030278;28;20469;-61
2022/05/03 08:26:33;;;;;;;8.07;5.00;;;22.40;43.50;;;;;;5032070;28;20387;-61
2022/05/03 08:29:00;;;;;;;6.28;4.68;;;22.40;43.20;;;;;;5031741;28;20442;-61
2022/05/03 08:31:26;;;;;;;6.75;5.10;;;22.40;43.40;;;;;;5005793;28;20479;-63
2022/05/03 08:33:51;;;;;;;5.75;4.78;;;22.40;42.90;;;;;;5029633;28;20425;-61
2022/05/03 08:36:17;;;;;;;6.70;5.40;;;22.40;43.00;;;;;;5031001;28;20401;-61
2022/05/03 08:44:12;;;;;;;5.90;5.28;;;22.40;42.40;;;;;;5027169;28;20965;-61
2022/05/03 08:46:39;;;;;;;5.90;5.30;;;22.40;42.30;;;;;;5031508;28;20387;-60
2022/05/03 08:49:07;;;;;;;6.38;5.30;;;22.40;42.20;;;;;;5031639;28;20433;-60
2022/05/03 08:51:33;;;;;;;7.27;5.70;;;22.40;42.10;;;;;;5031660;28;20485;-60
2022/05/03 08:54:01;;;;;;;13.87;12.07;;;22.40;43.40;;;;;;5024275;28;20395;-60
2022/05/03 08:56:27;;;;;;;8.60;7.63;;;22.30;46.00;;;;;;5027536;28;20431;-60
2022/05/03 08:58:54;;;;;;;7.32;6.18;;;22.40;46.00;;;;;;5029298;28;20651;-61
2022/05/03 09:01:20;;;;;;;7.97;5.80;;;22.40;45.00;;;;;;5018273;28;20419;-62
2022/05/03 09:03:46;;;;;;;6.65;5.70;;;22.40;44.50;;;;;;5022106;28;20459;-61
2022/05/03 09:06:11;;;;;;;6.50;5.13;;;22.40;43.40;;;;;;5018182;28;20406;-61
2022/05/03 09:08:39;;;;;;;8.45;5.63;;;22.40;43.40;;;;;;5012391;28;20878;-61
2022/05/03 09:11:18;;;;;;;6.63;5.15;;;22.40;43.80;;;;;;5002483;28;20570;-61
2022/05/03 09:13:46;;;;;;;6.05;5.32;;;22.40;44.60;;;;;;5003695;28;20502;-63
2022/05/03 09:16:18;;;;;;;7.25;5.30;;;22.40;44.20;;;;;;5000078;28;20968;-62
2022/05/03 09:18:46;;;;;;;11.52;5.43;;;22.40;44.60;;;;;;5004368;28;20415;-61
2022/05/03 09:24:10;;;;;;;9.75;5.30;;;22.60;43.70;;;;;;5011445;28;20447;-63
2022/05/03 09:26:37;;;;;;;7.53;5.13;;;22.50;43.50;;;;;;5010901;28;20435;-63
2022/05/03 09:29:11;;;;;;;8.50;5.80;;;22.50;43.70;;;;;;5009807;28;20398;-63
2022/05/03 09:31:41;;;;;;;7.90;5.82;;;22.60;45.10;;;;;;5009083;28;20552;-63
2022/05/03 09:34:19;;;;;;;8.18;5.47;;;22.70;45.20;;;;;;5009921;28;20758;-64
2022/05/03 09:37:05;;;;;;;8.75;5.25;;;22.70;44.20;;;;;;5010728;28;20409;-62
2022/05/03 09:39:33;;;;;;;8.68;4.93;;;22.70;44.00;;;;;;5010807;28;20397;-64
2022/05/03 09:42:19;;;;;;;7.18;4.80;;;22.70;44.00;;;;;;5010680;28;20393;-61
2022/05/03 09:44:52;;;;;;;6.72;4.57;;;22.70;43.90;;;;;;5014186;28;20707;-62
2022/05/03 09:47:20;;;;;;;8.07;4.85;;;22.70;44.00;;;;;;5033735;28;20390;-62
2022/05/03 09:49:46;;;;;;;8.07;4.60;;;22.60;43.60;;;;;;5033339;28;20417;-62
2022/05/03 09:52:29;;;;;;;7.18;4.30;;;22.60;43.70;;;;;;5034633;28;20395;-61
2022/05/03 09:55:03;;;;;;;7.88;4.40;;;22.60;43.50;;;;;;5034690;28;20880;-63
2022/05/03 09:57:33;;;;;;;7.82;4.45;;;22.60;43.60;;;;;;5034790;28;20403;-62
2022/05/03 10:00:00;;;;;;;6.78;4.57;;;22.70;43.80;;;;;;5035359;28;20387;-63
2022/05/03 10:02:28;;;;;;;5.32;3.80;;;22.70;43.50;;;;;;5033918;28;20478;-62
2022/05/03 10:04:56;;;;;;;5.65;4.10;;;22.70;43.50;;;;;;5035410;28;20399;-62
2022/05/03 10:07:23;;;;;;;6.18;4.20;;;22.60;43.40;;;;;;5035438;28;20391;-61
2022/05/03 10:09:49;;;;;;;5.63;4.10;;;22.70;43.20;;;;;;5034357;28;20411;-62
2022/05/03 10:12:16;;;;;;;6.28;4.20;;;22.70;43.20;;;;;;5017054;28;20411;-62
2022/05/03 10:14:43;;;;;;;5.70;4.10;;;22.70;43.10;;;;;;5011169;28;20402;-63
2022/05/03 10:23:02;;;;;;;6.75;3.90;;;22.70;42.70;;;;;;5023550;28;20458;-61
2022/05/03 10:26:01;;;;;;;4.88;3.60;;;22.70;43.00;;;;;;5004646;28;20413;-61
2022/05/03 10:28:58;;;;;;;6.70;3.90;;;22.60;42.90;;;;;;4974610;28;20873;-62
2022/05/03 10:31:24;;;;;;;5.15;3.80;;;22.70;42.90;;;;;;5004178;28;20390;-62
2022/05/03 10:33:50;;;;;;;5.78;3.78;;;22.70;42.60;;;;;;5002505;28;20384;-62
2022/05/03 10:36:39;;;;;;;4.93;3.80;;;22.70;42.50;;;;;;5002912;28;20861;-63
2022/05/03 10:39:21;;;;;;;4.35;3.95;;;22.70;42.60;;;;;;4994226;28;20390;-61
2022/05/03 10:42:11;;;;;;;5.07;3.90;;;22.70;42.50;;;;;;4994482;28;20426;-63
2022/05/03 10:44:45;;;;;;;5.10;3.90;;;22.70;42.40;;;;;;4988984;28;20960;-62
2022/05/03 10:47:14;;;;;;;4.43;3.88;;;22.60;42.60;;;;;;4994566;28;20392;-62
2022/05/03 10:50:10;;;;;;;5.10;4.00;;;22.70;41.90;;;;;;4994395;28;20391;-62
2022/05/03 10:52:36;;;;;;;5.60;4.15;;;22.70;41.70;;;;;;4994059;28;20391;-64
2022/05/03 10:55:09;;;;;;;5.13;4.30;;;22.70;41.70;;;;;;4994441;28;20383;-62
2022/05/03 10:58:26;;;;;;;4.38;3.97;;;22.70;41.80;;;;;;4994513;28;20398;-62
2022/05/03 11:01:20;;;;;;;4.53;3.83;;;22.70;41.90;;;;;;5003347;28;20412;-62
2022/05/03 11:03:51;;;;;;;4.97;4.00;;;22.70;41.60;;;;;;5013948;28;20785;-62
2022/05/03 11:06:21;;;;;;;4.57;4.10;;;22.70;41.90;;;;;;5013768;28;20397;-62
2022/05/03 11:09:02;;;;;;;4.80;4.00;;;22.70;41.90;;;;;;5013826;28;20392;-63
2022/05/03 11:11:43;;;;;;;3.83;3.20;;;22.70;41.90;;;;;;5013740;28;20427;-63
2022/05/03 11:14:21;;;;;;;3.58;3.05;;;23.70;43.60;;;;;;5014024;28;20420;-61
2022/05/03 11:17:08;;;;;;;3.97;3.05;;;24.40;41.40;;;;;;5013870;28;20432;-61
2022/05/03 11:19:39;;;;;;;5.05;3.25;;;24.70;40.30;;;;;;5013846;28;20439;-61
2022/05/03 11:22:16;;;;;;;9.43;3.30;;;25.00;39.70;;;;;;5013627;28;20393;-61
2022/05/03 11:24:47;;;;;;;5.68;2.80;;;25.10;39.50;;;;;;5013329;28;20404;-61
2022/05/03 11:27:14;;;;;;;5.13;2.90;;;25.20;39.50;;;;;;5013983;28;20870;-62
2022/05/03 11:29:46;;;;;;;5.25;3.00;;;25.30;39.30;;;;;;5013784;28;20800;-61
2022/05/03 11:32:13;;;;;;;4.93;3.10;;;25.20;39.20;;;;;;5013683;28;20389;-61
2022/05/03 11:34:39;;;;;;;4.63;3.40;;;25.20;39.10;;;;;;5013043;28;20393;-62
2022/05/03 11:37:07;;;;;;;5.10;3.27;;;25.20;39.00;;;;;;5013564;28;20392;-61
2022/05/03 11:39:36;;;;;;;4.05;3.03;;;25.20;39.00;;;;;;5013735;28;20817;-62
2022/05/03 11:42:02;;;;;;;4.90;3.05;;;25.10;39.00;;;;;;5014354;28;20389;-61
2022/05/03 11:44:27;;;;;;;4.05;2.80;;;25.10;39.00;;;;;;5013020;28;20483;-61
2022/05/03 11:46:53;;;;;;;7.80;3.40;;;25.10;38.90;;;;;;5013418;28;20476;-61
2022/05/03 11:49:20;;;;;;;7.55;2.92;;;25.10;38.90;;;;;;5011260;28;20870;-60
2022/05/03 11:57:31;;;;;;;6.57;3.10;;;25.10;39.20;;;;;;5013347;28;20388;-64
2022/05/03 11:59:58;;;;;;;7.15;2.95;;;25.20;39.20;;;;;;5013017;28;20400;-63
2022/05/03 12:02:36;;;;;;;5.22;2.90;;;25.30;39.40;;;;;;5012810;28;20421;-62
2022/05/03 12:05:11;;;;;;;4.45;2.90;;;25.30;39.50;;;;;;5012899;28;20504;-63
2022/05/03 12:07:38;;;;;;;5.60;2.90;;;25.40;39.60;;;;;;5012681;28;20928;-63
2022/05/03 12:10:19;;;;;;;6.03;3.30;;;25.50;39.70;;;;;;5012053;28;20464;-63
2022/05/03 12:13:06;;;;;;;6.40;2.88;;;25.60;39.60;;;;;;5012376;28;20407;-68
2022/05/03 12:15:32;;;;;;;4.32;2.60;;;25.70;39.70;;;;;;5012955;28;20393;-65
2022/05/03 12:18:20;;;;;;;4.95;2.35;;;25.90;39.60;;;;;;5012688;28;20392;-69
2022/05/03 12:20:58;;;;;;;3.65;2.58;;;26.00;39.50;;;;;;5013677;28;20393;-65
2022/05/03 12:23:33;;;;;;;5.60;2.53;;;26.00;39.50;;;;;;5013776;28;20786;-64
2022/05/03 12:26:01;;;;;;;3.30;2.60;;;26.10;39.50;;;;;;5012723;28;20392;-63
2022/05/03 12:28:42;;;;;;;3.30;2.60;;;26.10;39.50;;;;;;5010636;28;20471;-64
2022/05/03 12:31:12;;;;;;;4.28;2.60;;;26.20;39.50;;;;;;5011583;28;20888;-63
2022/05/03 12:33:59;;;;;;;5.33;2.70;;;26.20;39.50;;;;;;5012245;28;20452;-63
2022/05/03 12:36:44;;;;;;;2.97;2.42;;;26.20;39.50;;;;;;5012203;28;20407;-65
2022/05/03 12:39:21;;;;;;;5.20;2.60;;;26.30;39.40;;;;;;5012366;28;20396;-64
2022/05/03 12:42:00;;;;;;;4.95;2.50;;;26.40;39.40;;;;;;5012239;28;20404;-64
2022/05/03 12:44:26;;;;;;;5.40;2.85;;;26.50;39.50;;;;;;5011616;28;20415;-65
2022/05/03 12:47:04;;;;;;;3.88;2.40;;;26.50;39.50;;;;;;5012433;28;20392;-65
2022/05/03 12:49:31;;;;;;;3.42;2.30;;;26.60;39.50;;;;;;5012501;28;20397;-63
2022/05/03 12:51:56;;;;;;;4.95;2.33;;;26.60;39.30;;;;;;5012153;28;20400;-64
2022/05/03 12:54:22;;;;;;;4.40;2.77;;;26.60;39.50;;;;;;5011883;28;20422;-64
2022/05/03 12:59:31;;;;;;;6.38;2.88;;;26.40;38.50;;;;;;5012144;28;20403;-65
2022/05/03 13:01:57;;;;;;;7.47;3.10;;;26.40;38.20;;;;;;5012089;28;20960;-62
2022/05/03 13:04:25;;;;;;;5.88;3.10;;;26.40;38.00;;;;;;5011842;28;20483;-63
2022/05/03 13:06:52;;;;;;;5.32;3.20;;;26.40;37.70;;;;;;5011773;28;20429;-62
2022/05/03 13:09:18;;;;;;;8.18;3.80;;;26.40;37.40;;;;;;5012156;28;20393;-63
2022/05/03 13:11:44;;;;;;;8.43;3.70;;;26.40;37.00;;;;;;5011917;28;20397;-64
2022/05/03 13:14:10;;;;;;;6.50;3.70;;;26.40;36.70;;;;;;5011407;28;20410;-63
2022/05/03 13:16:37;;;;;;;7.43;3.92;;;26.40;36.70;;;;;;5022596;28;20802;-63
2022/05/03 13:19:03;;;;;;;5.88;3.45;;;26.40;36.90;;;;;;5011857;28;20392;-62
2022/05/03 13:21:30;;;;;;;6.32;3.30;;;26.40;36.70;;;;;;5011720;28;20384;-64
2022/05/03 13:23:56;;;;;;;5.20;3.20;;;26.50;36.70;;;;;;5012104;28;20416;-62
2022/05/03 13:26:22;;;;;;;5.30;3.23;;;26.50;36.70;;;;;;5011858;28;20391;-63
2022/05/03 13:28:48;;;;;;;6.97;3.00;;;26.50;36.20;;;;;;5011391;28;20479;-63
2022/05/03 13:31:14;;;;;;;5.30;3.10;;;26.50;36.10;;;;;;5014711;28;20397;-62
2022/05/03 13:33:40;;;;;;;4.80;3.35;;;26.50;36.00;;;;;;5011353;28;20396;-63
2022/05/03 13:41:35;;;;;;;4.03;3.33;;;26.40;36.50;;;;;;5011613;28;20395;-63
2022/05/03 13:44:01;;;;;;;5.60;3.40;;;26.40;36.60;;;;;;5011579;28;20429;-63
2022/05/03 13:46:27;;;;;;;5.07;3.00;;;26.40;38.60;;;;;;5011106;28;20444;-64